sensor_id;sensor_type;location;lat;lon;timestamp;P1;durP1;ratioP1;P2;durP2;ratioP2
55003;SDS011;40900;52.710;6.438;2022-11-20T00:01:31;19.35;;;14.25;;
55003;SDS011;40900;52.710;6.438;2022-11-20T00:03:58;19.98;;;14.43;;
55003;SDS011;40900;52.710;6.438;2022-11-20T00:06:24;22.08;;;14.35;;
55003;SDS011;40900;52.710;6.438;2022-11-20T00:08:51;21.98;;;14.77;;
55003;SDS011;40900;52.710;6.438;2022-11-20T00:11:21;19.65;;;14.20;;
55003;SDS011;40900;52.710;6.438;2022-11-20T00:13:48;24.40;;;15.20;;
55003;SDS011;40900;52.710;6.438;2022-11-20T00:16:16;21.63;;;14.90;;
55003;SDS011;40900;52.710;6.438;2022-11-20T00:18:42;21.08;;;14.63;;
55003;SDS011;40900;52.710;6.438;2022-11-20T00:21:13;20.10;;;13.95;;
55003;SDS011;40900;52.710;6.438;2022-11-20T00:23:40;26.33;;;15.23;;
55003;SDS011;40900;52.710;6.438;2022-11-20T00:26:07;21.30;;;14.95;;
55003;SDS011;40900;52.710;6.438;2022-11-20T00:28:33;24.55;;;15.73;;
55003;SDS011;40900;52.710;6.438;2022-11-20T00:31:03;24.58;;;14.95;;
55003;SDS011;40900;52.710;6.438;2022-11-20T00:33:29;24.77;;;14.60;;
55003;SDS011;40900;52.710;6.438;2022-11-20T00:36:00;29.05;;;16.38;;
55003;SDS011;40900;52.710;6.438;2022-11-20T00:38:26;27.25;;;15.95;;
55003;SDS011;40900;52.710;6.438;2022-11-20T00:40:56;27.45;;;16.63;;
55003;SDS011;40900;52.710;6.438;2022-11-20T00:43:22;25.35;;;16.88;;
55003;SDS011;40900;52.710;6.438;2022-11-20T00:45:49;24.85;;;17.02;;
55003;SDS011;40900;52.710;6.438;2022-11-20T00:48:15;27.42;;;17.05;;
55003;SDS011;40900;52.710;6.438;2022-11-20T00:50:41;31.98;;;19.27;;
55003;SDS011;40900;52.710;6.438;2022-11-20T00:53:07;29.45;;;20.52;;
55003;SDS011;40900;52.710;6.438;2022-11-20T00:55:33;34.50;;;21.60;;
55003;SDS011;40900;52.710;6.438;2022-11-20T00:57:59;31.85;;;20.65;;
55003;SDS011;40900;52.710;6.438;2022-11-20T01:00:25;33.78;;;21.73;;
55003;SDS011;40900;52.710;6.438;2022-11-20T01:02:51;37.85;;;23.10;;
55003;SDS011;40900;52.710;6.438;2022-11-20T01:05:17;36.15;;;23.65;;
55003;SDS011;40900;52.710;6.438;2022-11-20T01:07:43;36.17;;;22.35;;
55003;SDS011;40900;52.710;6.438;2022-11-20T01:10:09;31.58;;;20.83;;
55003;SDS011;40900;52.710;6.438;2022-11-20T01:12:35;37.85;;;23.45;;
55003;SDS011;40900;52.710;6.438;2022-11-20T01:15:02;39.45;;;25.98;;
55003;SDS011;40900;52.710;6.438;2022-11-20T01:17:28;36.35;;;23.60;;
55003;SDS011;40900;52.710;6.438;2022-11-20T01:19:54;32.65;;;21.40;;
55003;SDS011;40900;52.710;6.438;2022-11-20T01:22:20;32.55;;;20.08;;
55003;SDS011;40900;52.710;6.438;2022-11-20T01:24:46;32.97;;;21.33;;
55003;SDS011;40900;52.710;6.438;2022-11-20T01:27:12;31.02;;;19.23;;
55003;SDS011;40900;52.710;6.438;2022-11-20T01:29:38;29.00;;;19.48;;
55003;SDS011;40900;52.710;6.438;2022-11-20T01:32:04;24.92;;;16.70;;
55003;SDS011;40900;52.710;6.438;2022-11-20T01:34:30;22.80;;;14.95;;
55003;SDS011;40900;52.710;6.438;2022-11-20T01:36:56;24.20;;;14.85;;
55003;SDS011;40900;52.710;6.438;2022-11-20T01:39:23;20.48;;;13.77;;
55003;SDS011;40900;52.710;6.438;2022-11-20T01:41:50;21.77;;;13.57;;
55003;SDS011;40900;52.710;6.438;2022-11-20T02:04:04;24.13;;;14.25;;
55003;SDS011;40900;52.710;6.438;2022-11-20T02:06:35;21.42;;;14.75;;
55003;SDS011;40900;52.710;6.438;2022-11-20T02:09:01;19.33;;;12.40;;
55003;SDS011;40900;52.710;6.438;2022-11-20T02:11:29;22.20;;;14.35;;
55003;SDS011;40900;52.710;6.438;2022-11-20T02:13:55;20.38;;;13.30;;
55003;SDS011;40900;52.710;6.438;2022-11-20T02:16:32;20.15;;;13.25;;
55003;SDS011;40900;52.710;6.438;2022-11-20T02:19:00;21.20;;;14.00;;
55003;SDS011;40900;52.710;6.438;2022-11-20T02:21:28;19.08;;;13.38;;
55003;SDS011;40900;52.710;6.438;2022-11-20T02:24:03;20.65;;;13.93;;
55003;SDS011;40900;52.710;6.438;2022-11-20T02:26:30;19.27;;;13.07;;
55003;SDS011;40900;52.710;6.438;2022-11-20T02:28:58;22.10;;;13.70;;
55003;SDS011;40900;52.710;6.438;2022-11-20T02:31:24;19.63;;;13.40;;
55003;SDS011;40900;52.710;6.438;2022-11-20T02:33:54;23.30;;;13.60;;
55003;SDS011;40900;52.710;6.438;2022-11-20T02:36:20;20.40;;;13.27;;
55003;SDS011;40900;52.710;6.438;2022-11-20T02:38:47;18.77;;;13.68;;
55003;SDS011;40900;52.710;6.438;2022-11-20T02:41:14;21.58;;;14.65;;
55003;SDS011;40900;52.710;6.438;2022-11-20T02:43:40;23.25;;;13.88;;
55003;SDS011;40900;52.710;6.438;2022-11-20T02:46:07;20.58;;;13.68;;
55003;SDS011;40900;52.710;6.438;2022-11-20T02:48:33;25.38;;;13.93;;
55003;SDS011;40900;52.710;6.438;2022-11-20T02:50:59;20.17;;;13.82;;
55003;SDS011;40900;52.710;6.438;2022-11-20T02:53:25;21.88;;;14.35;;
55003;SDS011;40900;52.710;6.438;2022-11-20T02:55:51;19.85;;;14.25;;
55003;SDS011;40900;52.710;6.438;2022-11-20T02:58:17;20.05;;;13.70;;
55003;SDS011;40900;52.710;6.438;2022-11-20T03:00:43;19.13;;;13.52;;
55003;SDS011;40900;52.710;6.438;2022-11-20T03:03:10;20.73;;;14.30;;
55003;SDS011;40900;52.710;6.438;2022-11-20T03:05:36;21.77;;;13.60;;
55003;SDS011;40900;52.710;6.438;2022-11-20T03:08:02;21.33;;;13.85;;
55003;SDS011;40900;52.710;6.438;2022-11-20T03:10:28;19.23;;;14.25;;
55003;SDS011;40900;52.710;6.438;2022-11-20T03:12:54;22.35;;;13.45;;
55003;SDS011;40900;52.710;6.438;2022-11-20T03:15:21;19.23;;;13.50;;
55003;SDS011;40900;52.710;6.438;2022-11-20T03:17:48;23.17;;;14.85;;
55003;SDS011;40900;52.710;6.438;2022-11-20T03:20:14;21.17;;;13.32;;
55003;SDS011;40900;52.710;6.438;2022-11-20T03:22:40;21.42;;;14.13;;
55003;SDS011;40900;52.710;6.438;2022-11-20T03:25:06;20.95;;;13.90;;
55003;SDS011;40900;52.710;6.438;2022-11-20T03:27:33;23.65;;;16.35;;
55003;SDS011;40900;52.710;6.438;2022-11-20T03:30:02;22.85;;;15.80;;
55003;SDS011;40900;52.710;6.438;2022-11-20T03:32:29;23.63;;;15.50;;
55003;SDS011;40900;52.710;6.438;2022-11-20T03:34:55;24.50;;;15.95;;
55003;SDS011;40900;52.710;6.438;2022-11-20T03:37:21;21.60;;;14.52;;
55003;SDS011;40900;52.710;6.438;2022-11-20T03:39:47;21.58;;;14.43;;
55003;SDS011;40900;52.710;6.438;2022-11-20T03:42:13;20.85;;;14.75;;
55003;SDS011;40900;52.710;6.438;2022-11-20T03:44:58;21.75;;;15.15;;
55003;SDS011;40900;52.710;6.438;2022-11-20T03:47:24;22.15;;;15.35;;
55003;SDS011;40900;52.710;6.438;2022-11-20T03:49:50;22.00;;;14.27;;
55003;SDS011;40900;52.710;6.438;2022-11-20T03:52:16;22.02;;;14.65;;
55003;SDS011;40900;52.710;6.438;2022-11-20T03:54:42;20.38;;;14.60;;
55003;SDS011;40900;52.710;6.438;2022-11-20T03:57:08;19.67;;;13.75;;
55003;SDS011;40900;52.710;6.438;2022-11-20T03:59:34;21.25;;;14.77;;
55003;SDS011;40900;52.710;6.438;2022-11-20T04:02:00;22.55;;;15.30;;
55003;SDS011;40900;52.710;6.438;2022-11-20T04:04:26;21.85;;;15.05;;
55003;SDS011;40900;52.710;6.438;2022-11-20T04:06:52;21.60;;;13.77;;
55003;SDS011;40900;52.710;6.438;2022-11-20T04:09:18;21.05;;;14.35;;
55003;SDS011;40900;52.710;6.438;2022-11-20T04:11:44;23.77;;;14.77;;
55003;SDS011;40900;52.710;6.438;2022-11-20T04:14:14;23.02;;;14.88;;
55003;SDS011;40900;52.710;6.438;2022-11-20T04:16:40;21.38;;;14.75;;
55003;SDS011;40900;52.710;6.438;2022-11-20T04:19:08;25.58;;;14.65;;
55003;SDS011;40900;52.710;6.438;2022-11-20T04:21:35;21.08;;;14.88;;
55003;SDS011;40900;52.710;6.438;2022-11-20T04:24:01;25.83;;;14.73;;
55003;SDS011;40900;52.710;6.438;2022-11-20T04:26:28;21.48;;;14.45;;
55003;SDS011;40900;52.710;6.438;2022-11-20T04:28:54;19.55;;;13.90;;
55003;SDS011;40900;52.710;6.438;2022-11-20T04:31:21;24.08;;;14.32;;
55003;SDS011;40900;52.710;6.438;2022-11-20T04:33:47;20.63;;;14.45;;
55003;SDS011;40900;52.710;6.438;2022-11-20T04:36:15;20.98;;;14.95;;
55003;SDS011;40900;52.710;6.438;2022-11-20T04:38:41;19.52;;;14.68;;
55003;SDS011;40900;52.710;6.438;2022-11-20T04:41:09;21.55;;;14.73;;
55003;SDS011;40900;52.710;6.438;2022-11-20T04:43:37;22.13;;;14.65;;
55003;SDS011;40900;52.710;6.438;2022-11-20T04:46:03;20.33;;;14.60;;
55003;SDS011;40900;52.710;6.438;2022-11-20T04:48:29;23.27;;;15.32;;
55003;SDS011;40900;52.710;6.438;2022-11-20T04:50:55;21.48;;;14.93;;
55003;SDS011;40900;52.710;6.438;2022-11-20T04:53:21;21.27;;;14.98;;
55003;SDS011;40900;52.710;6.438;2022-11-20T04:55:48;20.75;;;14.55;;
55003;SDS011;40900;52.710;6.438;2022-11-20T04:58:14;22.20;;;15.77;;
55003;SDS011;40900;52.710;6.438;2022-11-20T05:00:40;21.63;;;14.73;;
55003;SDS011;40900;52.710;6.438;2022-11-20T05:03:06;21.10;;;14.15;;
55003;SDS011;40900;52.710;6.438;2022-11-20T05:05:35;22.35;;;15.20;;
55003;SDS011;40900;52.710;6.438;2022-11-20T05:08:02;20.35;;;14.98;;
55003;SDS011;40900;52.710;6.438;2022-11-20T05:10:28;21.45;;;14.82;;
55003;SDS011;40900;52.710;6.438;2022-11-20T05:12:54;22.45;;;14.48;;
55003;SDS011;40900;52.710;6.438;2022-11-20T05:15:20;20.27;;;14.55;;
55003;SDS011;40900;52.710;6.438;2022-11-20T05:17:48;21.20;;;15.18;;
55003;SDS011;40900;52.710;6.438;2022-11-20T05:20:15;19.88;;;14.95;;
55003;SDS011;40900;52.710;6.438;2022-11-20T05:22:41;25.05;;;15.18;;
55003;SDS011;40900;52.710;6.438;2022-11-20T05:25:07;23.63;;;15.20;;
55003;SDS011;40900;52.710;6.438;2022-11-20T05:27:33;23.88;;;15.52;;
55003;SDS011;40900;52.710;6.438;2022-11-20T05:30:00;23.05;;;14.52;;
55003;SDS011;40900;52.710;6.438;2022-11-20T05:32:26;21.67;;;13.88;;
55003;SDS011;40900;52.710;6.438;2022-11-20T05:34:52;22.58;;;14.45;;
55003;SDS011;40900;52.710;6.438;2022-11-20T05:37:18;20.17;;;13.93;;
55003;SDS011;40900;52.710;6.438;2022-11-20T05:39:44;17.85;;;13.27;;
55003;SDS011;40900;52.710;6.438;2022-11-20T05:42:10;22.70;;;15.20;;
55003;SDS011;40900;52.710;6.438;2022-11-20T05:44:55;24.08;;;15.07;;
55003;SDS011;40900;52.710;6.438;2022-11-20T05:47:21;23.50;;;14.95;;
55003;SDS011;40900;52.710;6.438;2022-11-20T05:49:47;21.65;;;15.25;;
55003;SDS011;40900;52.710;6.438;2022-11-20T05:52:13;23.67;;;15.32;;
55003;SDS011;40900;52.710;6.438;2022-11-20T05:54:39;25.35;;;16.65;;
55003;SDS011;40900;52.710;6.438;2022-11-20T05:57:05;24.50;;;16.70;;
55003;SDS011;40900;52.710;6.438;2022-11-20T05:59:31;25.08;;;15.95;;
55003;SDS011;40900;52.710;6.438;2022-11-20T06:01:57;24.23;;;15.77;;
55003;SDS011;40900;52.710;6.438;2022-11-20T06:04:23;23.08;;;15.05;;
55003;SDS011;40900;52.710;6.438;2022-11-20T06:06:49;23.45;;;15.50;;
55003;SDS011;40900;52.710;6.438;2022-11-20T06:09:15;20.75;;;14.57;;
55003;SDS011;40900;52.710;6.438;2022-11-20T06:11:41;22.73;;;14.90;;
55003;SDS011;40900;52.710;6.438;2022-11-20T06:14:07;26.80;;;16.15;;
55003;SDS011;40900;52.710;6.438;2022-11-20T06:16:33;21.85;;;14.75;;
55003;SDS011;40900;52.710;6.438;2022-11-20T06:18:59;22.70;;;15.18;;
55003;SDS011;40900;52.710;6.438;2022-11-20T06:21:26;20.65;;;15.13;;
55003;SDS011;40900;52.710;6.438;2022-11-20T06:23:52;21.33;;;14.57;;
55003;SDS011;40900;52.710;6.438;2022-11-20T06:26:22;22.30;;;14.80;;
55003;SDS011;40900;52.710;6.438;2022-11-20T06:28:49;20.60;;;14.40;;
55003;SDS011;40900;52.710;6.438;2022-11-20T06:31:17;21.95;;;14.57;;
55003;SDS011;40900;52.710;6.438;2022-11-20T06:33:43;23.45;;;14.98;;
55003;SDS011;40900;52.710;6.438;2022-11-20T06:36:10;23.45;;;15.85;;
55003;SDS011;40900;52.710;6.438;2022-11-20T06:38:36;24.98;;;16.10;;
55003;SDS011;40900;52.710;6.438;2022-11-20T06:41:03;24.10;;;15.30;;
55003;SDS011;40900;52.710;6.438;2022-11-20T06:43:29;21.92;;;15.05;;
55003;SDS011;40900;52.710;6.438;2022-11-20T06:45:56;23.60;;;15.55;;
55003;SDS011;40900;52.710;6.438;2022-11-20T06:48:22;19.75;;;14.85;;
55003;SDS011;40900;52.710;6.438;2022-11-20T06:50:49;21.77;;;15.02;;
55003;SDS011;40900;52.710;6.438;2022-11-20T06:53:15;22.48;;;15.57;;
55003;SDS011;40900;52.710;6.438;2022-11-20T06:55:42;22.10;;;14.98;;
55003;SDS011;40900;52.710;6.438;2022-11-20T06:58:08;29.13;;;15.35;;
55003;SDS011;40900;52.710;6.438;2022-11-20T07:00:35;23.90;;;15.93;;
55003;SDS011;40900;52.710;6.438;2022-11-20T07:03:04;20.08;;;14.40;;
55003;SDS011;40900;52.710;6.438;2022-11-20T07:05:30;22.58;;;15.45;;
55003;SDS011;40900;52.710;6.438;2022-11-20T07:07:56;23.35;;;15.13;;
55003;SDS011;40900;52.710;6.438;2022-11-20T07:10:23;20.95;;;14.48;;
55003;SDS011;40900;52.710;6.438;2022-11-20T07:12:49;20.88;;;15.00;;
55003;SDS011;40900;52.710;6.438;2022-11-20T07:15:16;22.45;;;15.68;;
55003;SDS011;40900;52.710;6.438;2022-11-20T07:17:42;23.80;;;14.80;;
55003;SDS011;40900;52.710;6.438;2022-11-20T07:20:08;22.35;;;15.23;;
55003;SDS011;40900;52.710;6.438;2022-11-20T07:22:35;25.83;;;16.80;;
55003;SDS011;40900;52.710;6.438;2022-11-20T07:25:01;20.23;;;15.50;;
55003;SDS011;40900;52.710;6.438;2022-11-20T07:27:27;22.63;;;15.55;;
55003;SDS011;40900;52.710;6.438;2022-11-20T07:29:53;22.65;;;15.68;;
55003;SDS011;40900;52.710;6.438;2022-11-20T07:32:19;22.83;;;15.48;;
55003;SDS011;40900;52.710;6.438;2022-11-20T07:34:45;25.30;;;15.85;;
55003;SDS011;40900;52.710;6.438;2022-11-20T07:37:11;22.58;;;15.63;;
55003;SDS011;40900;52.710;6.438;2022-11-20T07:39:37;23.20;;;15.13;;
55003;SDS011;40900;52.710;6.438;2022-11-20T07:42:03;20.73;;;15.52;;
55003;SDS011;40900;52.710;6.438;2022-11-20T07:44:30;22.75;;;15.73;;
55003;SDS011;40900;52.710;6.438;2022-11-20T07:46:56;23.90;;;16.08;;
55003;SDS011;40900;52.710;6.438;2022-11-20T07:49:22;24.92;;;15.73;;
55003;SDS011;40900;52.710;6.438;2022-11-20T07:51:49;21.27;;;15.25;;
55003;SDS011;40900;52.710;6.438;2022-11-20T07:54:16;23.05;;;16.58;;
55003;SDS011;40900;52.710;6.438;2022-11-20T07:56:42;22.65;;;15.98;;
55003;SDS011;40900;52.710;6.438;2022-11-20T07:59:08;24.50;;;15.63;;
55003;SDS011;40900;52.710;6.438;2022-11-20T08:01:36;22.80;;;15.88;;
55003;SDS011;40900;52.710;6.438;2022-11-20T08:04:02;21.90;;;16.20;;
55003;SDS011;40900;52.710;6.438;2022-11-20T08:06:29;22.25;;;15.68;;
55003;SDS011;40900;52.710;6.438;2022-11-20T08:08:55;23.35;;;16.02;;
55003;SDS011;40900;52.710;6.438;2022-11-20T08:11:21;21.77;;;14.52;;
55003;SDS011;40900;52.710;6.438;2022-11-20T08:14:05;24.42;;;16.05;;
55003;SDS011;40900;52.710;6.438;2022-11-20T08:16:45;22.67;;;15.20;;
55003;SDS011;40900;52.710;6.438;2022-11-20T08:19:12;24.65;;;16.80;;
55003;SDS011;40900;52.710;6.438;2022-11-20T08:21:38;23.02;;;16.17;;
55003;SDS011;40900;52.710;6.438;2022-11-20T08:24:05;23.50;;;15.95;;
55003;SDS011;40900;52.710;6.438;2022-11-20T08:26:32;24.25;;;15.70;;
55003;SDS011;40900;52.710;6.438;2022-11-20T08:28:58;23.45;;;15.43;;
55003;SDS011;40900;52.710;6.438;2022-11-20T08:31:25;27.20;;;17.30;;
55003;SDS011;40900;52.710;6.438;2022-11-20T08:33:52;21.48;;;14.98;;
55003;SDS011;40900;52.710;6.438;2022-11-20T08:36:18;21.70;;;15.48;;
55003;SDS011;40900;52.710;6.438;2022-11-20T08:38:48;22.88;;;16.05;;
55003;SDS011;40900;52.710;6.438;2022-11-20T08:41:14;23.42;;;16.55;;
55003;SDS011;40900;52.710;6.438;2022-11-20T08:44:08;22.85;;;16.05;;
55003;SDS011;40900;52.710;6.438;2022-11-20T08:46:39;23.58;;;15.52;;
55003;SDS011;40900;52.710;6.438;2022-11-20T08:49:07;24.05;;;15.38;;
55003;SDS011;40900;52.710;6.438;2022-11-20T08:51:33;22.55;;;15.43;;
55003;SDS011;40900;52.710;6.438;2022-11-20T08:53:59;27.95;;;15.77;;
55003;SDS011;40900;52.710;6.438;2022-11-20T08:56:25;21.33;;;15.50;;
55003;SDS011;40900;52.710;6.438;2022-11-20T08:58:52;22.80;;;15.18;;
55003;SDS011;40900;52.710;6.438;2022-11-20T09:01:18;20.42;;;14.30;;
55003;SDS011;40900;52.710;6.438;2022-11-20T09:03:45;20.63;;;14.82;;
55003;SDS011;40900;52.710;6.438;2022-11-20T09:06:11;22.05;;;14.75;;
55003;SDS011;40900;52.710;6.438;2022-11-20T09:08:37;20.73;;;14.85;;
55003;SDS011;40900;52.710;6.438;2022-11-20T09:11:03;21.00;;;14.15;;
55003;SDS011;40900;52.710;6.438;2022-11-20T09:13:30;21.30;;;15.68;;
55003;SDS011;40900;52.710;6.438;2022-11-20T09:15:57;23.00;;;15.73;;
55003;SDS011;40900;52.710;6.438;2022-11-20T09:18:24;21.08;;;15.77;;
55003;SDS011;40900;52.710;6.438;2022-11-20T09:20:50;20.27;;;14.73;;
55003;SDS011;40900;52.710;6.438;2022-11-20T09:23:16;20.98;;;15.32;;
55003;SDS011;40900;52.710;6.438;2022-11-20T09:25:43;23.65;;;15.88;;
55003;SDS011;40900;52.710;6.438;2022-11-20T09:28:09;22.35;;;15.68;;
55003;SDS011;40900;52.710;6.438;2022-11-20T09:30:35;22.80;;;16.27;;
55003;SDS011;40900;52.710;6.438;2022-11-20T09:33:03;22.35;;;15.63;;
55003;SDS011;40900;52.710;6.438;2022-11-20T09:35:29;24.17;;;16.50;;
55003;SDS011;40900;52.710;6.438;2022-11-20T09:37:55;21.15;;;16.55;;
55003;SDS011;40900;52.710;6.438;2022-11-20T09:40:23;23.73;;;16.20;;
55003;SDS011;40900;52.710;6.438;2022-11-20T09:45:39;19.23;;;14.48;;
55003;SDS011;40900;52.710;6.438;2022-11-20T09:55:43;17.95;;;15.05;;
55003;SDS011;40900;52.710;6.438;2022-11-20T09:58:54;17.55;;;15.10;;
55003;SDS011;40900;52.710;6.438;2022-11-20T10:01:11;19.25;;;14.45;;
55003;SDS011;40900;52.710;6.438;2022-11-20T10:03:59;16.98;;;13.43;;
55003;SDS011;40900;52.710;6.438;2022-11-20T10:06:28;15.88;;;14.18;;
55003;SDS011;40900;52.710;6.438;2022-11-20T10:08:59;16.05;;;13.32;;
55003;SDS011;40900;52.710;6.438;2022-11-20T10:16:52;15.02;;;13.43;;
55003;SDS011;40900;52.710;6.438;2022-11-20T10:29:21;13.63;;;11.57;;
55003;SDS011;40900;52.710;6.438;2022-11-20T10:31:53;13.43;;;12.02;;
55003;SDS011;40900;52.710;6.438;2022-11-20T10:34:21;13.25;;;11.95;;
55003;SDS011;40900;52.710;6.438;2022-11-20T10:37:02;12.65;;;11.32;;
55003;SDS011;40900;52.710;6.438;2022-11-20T10:39:39;12.77;;;11.48;;
55003;SDS011;40900;52.710;6.438;2022-11-20T10:42:08;14.48;;;11.40;;
55003;SDS011;40900;52.710;6.438;2022-11-20T10:44:36;13.02;;;11.63;;
55003;SDS011;40900;52.710;6.438;2022-11-20T10:47:24;12.05;;;10.57;;
55003;SDS011;40900;52.710;6.438;2022-11-20T10:49:51;10.80;;;9.52;;
55003;SDS011;40900;52.710;6.438;2022-11-20T10:58:00;11.35;;;10.20;;
55003;SDS011;40900;52.710;6.438;2022-11-20T11:00:30;10.85;;;9.48;;
55003;SDS011;40900;52.710;6.438;2022-11-20T11:02:56;10.05;;;9.02;;
55003;SDS011;40900;52.710;6.438;2022-11-20T11:05:45;10.98;;;9.88;;
55003;SDS011;40900;52.710;6.438;2022-11-20T11:08:15;9.93;;;8.98;;
55003;SDS011;40900;52.710;6.438;2022-11-20T11:13:24;10.43;;;9.32;;
55003;SDS011;40900;52.710;6.438;2022-11-20T11:15:50;11.32;;;9.35;;
55003;SDS011;40900;52.710;6.438;2022-11-20T11:18:30;10.90;;;9.80;;
55003;SDS011;40900;52.710;6.438;2022-11-20T11:20:57;14.38;;;10.48;;
55003;SDS011;40900;52.710;6.438;2022-11-20T11:25:57;12.13;;;10.13;;
55003;SDS011;40900;52.710;6.438;2022-11-20T11:28:24;12.00;;;10.50;;
55003;SDS011;40900;52.710;6.438;2022-11-20T11:30:52;12.43;;;10.13;;
55003;SDS011;40900;52.710;6.438;2022-11-20T11:33:19;12.32;;;10.18;;
55003;SDS011;40900;52.710;6.438;2022-11-20T11:35:46;13.70;;;11.13;;
55003;SDS011;40900;52.710;6.438;2022-11-20T11:38:14;13.90;;;11.23;;
55003;SDS011;40900;52.710;6.438;2022-11-20T11:40:41;13.50;;;11.27;;
55003;SDS011;40900;52.710;6.438;2022-11-20T11:43:16;12.52;;;10.77;;
55003;SDS011;40900;52.710;6.438;2022-11-20T11:46:03;14.00;;;12.10;;
55003;SDS011;40900;52.710;6.438;2022-11-20T11:48:29;14.52;;;12.45;;
55003;SDS011;40900;52.710;6.438;2022-11-20T11:50:55;13.07;;;11.38;;
55003;SDS011;40900;52.710;6.438;2022-11-20T11:53:21;15.50;;;11.70;;
55003;SDS011;40900;52.710;6.438;2022-11-20T11:56:02;15.52;;;11.52;;
55003;SDS011;40900;52.710;6.438;2022-11-20T11:58:48;14.60;;;11.70;;
55003;SDS011;40900;52.710;6.438;2022-11-20T12:04:02;19.70;;;11.65;;
55003;SDS011;40900;52.710;6.438;2022-11-20T12:06:30;16.50;;;12.35;;
55003;SDS011;40900;52.710;6.438;2022-11-20T12:09:04;25.70;;;20.38;;
55003;SDS011;40900;52.710;6.438;2022-11-20T12:14:16;16.23;;;12.30;;
55003;SDS011;40900;52.710;6.438;2022-11-20T12:16:44;17.20;;;11.75;;
55003;SDS011;40900;52.710;6.438;2022-11-20T12:19:12;14.70;;;11.45;;
55003;SDS011;40900;52.710;6.438;2022-11-20T12:29:35;14.63;;;12.30;;
55003;SDS011;40900;52.710;6.438;2022-11-20T12:39:52;19.70;;;12.63;;
55003;SDS011;40900;52.710;6.438;2022-11-20T12:45:19;16.67;;;12.98;;
55003;SDS011;40900;52.710;6.438;2022-11-20T12:53:09;16.95;;;13.13;;
55003;SDS011;40900;52.710;6.438;2022-11-20T12:58:13;18.23;;;12.90;;
55003;SDS011;40900;52.710;6.438;2022-11-20T13:03:44;18.98;;;12.75;;
55003;SDS011;40900;52.710;6.438;2022-11-20T13:06:17;17.20;;;13.88;;
55003;SDS011;40900;52.710;6.438;2022-11-20T13:08:53;16.75;;;12.93;;
55003;SDS011;40900;52.710;6.438;2022-11-20T13:19:16;18.30;;;13.63;;
55003;SDS011;40900;52.710;6.438;2022-11-20T13:21:44;21.52;;;12.90;;
55003;SDS011;40900;52.710;6.438;2022-11-20T13:29:46;16.92;;;13.20;;
55003;SDS011;40900;52.710;6.438;2022-11-20T13:34:39;16.65;;;12.98;;
55003;SDS011;40900;52.710;6.438;2022-11-20T13:37:05;15.50;;;12.25;;
55003;SDS011;40900;52.710;6.438;2022-11-20T13:39:33;16.05;;;12.25;;
55003;SDS011;40900;52.710;6.438;2022-11-20T13:42:01;16.42;;;12.98;;
55003;SDS011;40900;52.710;6.438;2022-11-20T13:44:36;17.35;;;13.23;;
55003;SDS011;40900;52.710;6.438;2022-11-20T13:52:27;20.05;;;13.40;;
55003;SDS011;40900;52.710;6.438;2022-11-20T13:54:52;20.05;;;13.80;;
55003;SDS011;40900;52.710;6.438;2022-11-20T14:02:35;16.40;;;13.07;;
55003;SDS011;40900;52.710;6.438;2022-11-20T14:05:01;18.70;;;12.70;;
55003;SDS011;40900;52.710;6.438;2022-11-20T14:07:34;17.27;;;13.43;;
55003;SDS011;40900;52.710;6.438;2022-11-20T14:10:01;18.58;;;13.07;;
55003;SDS011;40900;52.710;6.438;2022-11-20T14:12:29;16.48;;;12.63;;
55003;SDS011;40900;52.710;6.438;2022-11-20T14:14:55;18.05;;;13.68;;
55003;SDS011;40900;52.710;6.438;2022-11-20T14:17:23;19.30;;;13.18;;
55003;SDS011;40900;52.710;6.438;2022-11-20T14:19:51;17.92;;;14.18;;
55003;SDS011;40900;52.710;6.438;2022-11-20T14:24:47;17.30;;;13.43;;
55003;SDS011;40900;52.710;6.438;2022-11-20T14:27:14;18.70;;;13.40;;
55003;SDS011;40900;52.710;6.438;2022-11-20T14:29:41;18.60;;;13.68;;
55003;SDS011;40900;52.710;6.438;2022-11-20T14:32:08;16.48;;;12.93;;
55003;SDS011;40900;52.710;6.438;2022-11-20T14:34:38;16.33;;;13.43;;
55003;SDS011;40900;52.710;6.438;2022-11-20T14:37:06;18.67;;;14.18;;
55003;SDS011;40900;52.710;6.438;2022-11-20T14:39:36;17.80;;;13.80;;
55003;SDS011;40900;52.710;6.438;2022-11-20T14:42:03;17.63;;;13.60;;
55003;SDS011;40900;52.710;6.438;2022-11-20T14:44:31;18.40;;;13.32;;
55003;SDS011;40900;52.710;6.438;2022-11-20T14:46:59;17.80;;;12.82;;
55003;SDS011;40900;52.710;6.438;2022-11-20T14:49:25;17.63;;;13.40;;
55003;SDS011;40900;52.710;6.438;2022-11-20T14:52:02;17.58;;;14.07;;
55003;SDS011;40900;52.710;6.438;2022-11-20T14:54:29;20.88;;;14.13;;
55003;SDS011;40900;52.710;6.438;2022-11-20T14:59:25;16.92;;;12.95;;
55003;SDS011;40900;52.710;6.438;2022-11-20T15:01:58;16.73;;;13.48;;
55003;SDS011;40900;52.710;6.438;2022-11-20T15:04:25;16.98;;;13.18;;
55003;SDS011;40900;52.710;6.438;2022-11-20T15:06:53;25.73;;;13.95;;
55003;SDS011;40900;52.710;6.438;2022-11-20T15:09:19;18.20;;;13.30;;
55003;SDS011;40900;52.710;6.438;2022-11-20T15:11:58;19.05;;;14.20;;
55003;SDS011;40900;52.710;6.438;2022-11-20T15:14:25;18.85;;;14.05;;
55003;SDS011;40900;52.710;6.438;2022-11-20T15:16:51;19.02;;;14.65;;
55003;SDS011;40900;52.710;6.438;2022-11-20T15:19:19;18.50;;;13.75;;
55003;SDS011;40900;52.710;6.438;2022-11-20T15:21:46;18.70;;;13.38;;
55003;SDS011;40900;52.710;6.438;2022-11-20T15:24:12;19.75;;;14.13;;
55003;SDS011;40900;52.710;6.438;2022-11-20T15:26:39;17.85;;;14.25;;
55003;SDS011;40900;52.710;6.438;2022-11-20T15:29:07;17.95;;;14.35;;
55003;SDS011;40900;52.710;6.438;2022-11-20T15:31:34;19.17;;;14.25;;
55003;SDS011;40900;52.710;6.438;2022-11-20T15:34:00;21.92;;;14.75;;
55003;SDS011;40900;52.710;6.438;2022-11-20T15:36:26;18.65;;;15.40;;
55003;SDS011;40900;52.710;6.438;2022-11-20T15:38:52;20.02;;;15.18;;
55003;SDS011;40900;52.710;6.438;2022-11-20T15:41:19;19.17;;;14.93;;
55003;SDS011;40900;52.710;6.438;2022-11-20T15:43:45;18.25;;;14.88;;
55003;SDS011;40900;52.710;6.438;2022-11-20T15:46:12;19.67;;;14.57;;
55003;SDS011;40900;52.710;6.438;2022-11-20T15:48:42;18.90;;;13.98;;
55003;SDS011;40900;52.710;6.438;2022-11-20T15:53:36;19.70;;;14.27;;
55003;SDS011;40900;52.710;6.438;2022-11-20T15:56:02;20.23;;;14.45;;
55003;SDS011;40900;52.710;6.438;2022-11-20T15:58:29;19.98;;;14.02;;
55003;SDS011;40900;52.710;6.438;2022-11-20T16:00:55;17.58;;;13.10;;
55003;SDS011;40900;52.710;6.438;2022-11-20T16:03:21;17.35;;;12.98;;
55003;SDS011;40900;52.710;6.438;2022-11-20T16:05:47;18.77;;;13.93;;
55003;SDS011;40900;52.710;6.438;2022-11-20T16:08:13;19.17;;;15.18;;
55003;SDS011;40900;52.710;6.438;2022-11-20T16:10:40;19.42;;;15.02;;
55003;SDS011;40900;52.710;6.438;2022-11-20T16:13:11;19.83;;;15.05;;
55003;SDS011;40900;52.710;6.438;2022-11-20T16:15:57;22.85;;;16.58;;
55003;SDS011;40900;52.710;6.438;2022-11-20T16:18:24;22.58;;;16.40;;
55003;SDS011;40900;52.710;6.438;2022-11-20T16:20:51;23.90;;;16.98;;
55003;SDS011;40900;52.710;6.438;2022-11-20T16:23:18;21.67;;;16.50;;
55003;SDS011;40900;52.710;6.438;2022-11-20T16:25:45;21.33;;;16.88;;
55003;SDS011;40900;52.710;6.438;2022-11-20T16:28:12;25.05;;;17.35;;
55003;SDS011;40900;52.710;6.438;2022-11-20T16:30:38;22.55;;;17.15;;